Flight Track Log - Related Links

Times and Time Zones

All times are in EDT time to prevent confusion due to time zone crossing. See the N931PC flight status page for this flight to view local times or setup timezone preferences in your user account.

Time Position Orientation Groundspeed Altitude Reporting Facility
EDT Latitude Longitude Course Direction KTS MPH feet Rate Location/Type
Sun 07:09:17 PM 36.4989 -92.3417 39° Northeast 142 163 4,700  Level Kansas City Center
Sun 07:10:19 PM 36.5244 -92.3142 41° Northeast 124 143 5,200 484 Climbing Kansas City Center
Sun 07:11:00 PM 36.5689 -92.2479 39° Northeast  Level FlightAware Approximate
Sun 07:11:21 PM 36.5517 -92.2861 40° Northeast 125 144 5,700  Level Kansas City Center
Sun 07:12:00 PM 36.6039 -92.2131 39° Northeast  Level FlightAware Approximate
Sun 07:12:15 PM 36.5797 -92.2639 32° Northeast 116 133 6,200  Level Memphis Center
Sun 07:13:15 PM 36.6053 -92.2336 44° Northeast 116 133 6,600 400 Climbing Memphis Center
Sun 07:14:15 PM 36.6347 -92.2083 35° Northeast 121 139 7,000 226 Climbing Memphis Center
Sun 07:15:28 PM 36.6694 -92.1669 44° Northeast 132 152 7,100 44 Climbing Kansas City Center
Sun 07:16:30 PM 36.7028 -92.1328 39° Northeast 142 163 7,100  Level Kansas City Center
Sun 07:17:31 PM 36.7378 -92.0953 41° Northeast 152 175 7,100  Level Kansas City Center
Sun 07:18:33 PM 36.7744 -92.0583 39° Northeast 160 184 7,100  Level Kansas City Center
Sun 07:19:35 PM 36.8092 -92.0208 41° Northeast 163 188 7,100  Level Kansas City Center
Sun 07:20:36 PM 36.8444 -91.9847 39° Northeast 164 189 7,100 -49 Level Kansas City Center
Sun 07:21:38 PM 36.8869 -91.9406 40° Northeast 165 190 7,000 -48 Descending Kansas City Center
Sun 07:22:40 PM 36.9222 -91.9053 39° Northeast 164 189 7,000  Level Kansas City Center
Sun 07:23:42 PM 36.9578 -91.8681 40° Northeast 164 189 7,000  Level Kansas City Center
Sun 07:24:43 PM 36.9931 -91.8317 39° Northeast 165 190 7,000  Level Kansas City Center
Sun 07:25:45 PM 37.0275 -91.7958 40° Northeast 163 188 7,000  Level Kansas City Center
Sun 07:26:47 PM 37.0625 -91.7597 39° Northeast 163 188 7,000  Level Kansas City Center
Sun 07:27:48 PM 37.0978 -91.7239 39° Northeast 163 188 7,000  Level Kansas City Center
Sun 07:28:50 PM 37.1339 -91.6872 39° Northeast 165 190 7,000  Level Kansas City Center
Sun 07:29:52 PM 37.1769 -91.6417 40° Northeast 168 193 7,000  Level Kansas City Center
Sun 07:30:53 PM 37.2117 -91.6053 40° Northeast 164 189 7,000  Level Kansas City Center
Sun 07:31:55 PM 37.2464 -91.5689 40° Northeast 163 188 7,000  Level Kansas City Center
Sun 07:32:57 PM 37.2819 -91.5319 40° Northeast 164 189 7,000  Level Kansas City Center
Sun 07:33:58 PM 37.3169 -91.4950 40° Northeast 164 189 7,000  Level Kansas City Center
Sun 07:35:00 PM 37.3517 -91.4589 40° Northeast 164 189 7,000  Level Kansas City Center
Sun 07:36:01 PM 37.3867 -91.4219 40° Northeast 164 189 7,000  Level Kansas City Center
Sun 07:37:03 PM 37.4231 -91.3844 39° Northeast 166 191 7,000  Level Kansas City Center
Sun 07:38:06 PM 37.4650 -91.3403 40° Northeast 165 190 7,000  Level Kansas City Center
Sun 07:39:06 PM 37.5008 -91.3031 39° Northeast 167 192 7,000  Level Kansas City Center
Sun 07:40:08 PM 37.5347 -91.2667 40° Northeast 163 188 7,000  Level Kansas City Center
Sun 07:41:10 PM 37.5703 -91.2306 39° Northeast 163 188 7,000  Level Kansas City Center
Sun 07:42:11 PM 37.6047 -91.1931 41° Northeast 164 189 7,000  Level Kansas City Center
Sun 07:43:13 PM 37.6389 -91.1572 40° Northeast 161 185 7,000  Level Kansas City Center
Sun 07:44:15 PM 37.6744 -91.1200 40° Northeast 164 189 7,000  Level Kansas City Center
Sun 07:45:16 PM 37.7089 -91.0833 40° Northeast 163 188 7,000 49 Level Kansas City Center
Sun 07:46:18 PM 37.7439 -91.0469 39° Northeast 161 185 7,100 49 Climbing Kansas City Center
Sun 07:47:19 PM 37.7775 -91.0092 42° Northeast 161 185 7,100 -49 Level Kansas City Center
Sun 07:48:21 PM 37.8203 -90.9653 39° Northeast 164 189 7,000 -290 Descending Kansas City Center
Sun 07:49:23 PM 37.8578 -90.9261 40° Northeast 173 199 6,500 -439 Descending Kansas City Center
Sun 07:50:24 PM 37.8972 -90.8847 40° Northeast 181 208 6,100 -390 Descending Kansas City Center
Sun 07:51:26 PM 37.9358 -90.8422 41° Northeast 184 212 5,700 -435 Descending Kansas City Center
Sun 07:52:28 PM 37.9772 -90.8044 36° Northeast 184 212 5,200 -293 Descending Kansas City Center
Sun 07:53:29 PM 38.0142 -90.7661 39° Northeast 176 203 5,100 -49 Descending Kansas City Center
Sun 07:54:31 PM 38.0486 -90.7281 41° Northeast 169 194 5,100  Level Kansas City Center
Sun 07:55:33 PM 38.0883 -90.6836 41° Northeast 162 186 5,100  Level Kansas City Center
Sun 07:56:34 PM 38.1214 -90.6447 43° Northeast 162 186 5,100  Level Kansas City Center
Sun 07:57:36 PM 38.1558 -90.6089 39° Northeast 161 185 5,100  Level Kansas City Center
Sun 07:58:38 PM 38.1906 -90.5706 41° Northeast 163 188 5,100  Level Kansas City Center
Sun 07:59:40 PM 38.2236 -90.5319 43° Northeast 163 188 5,100  Level Kansas City Center
Sun 08:00:41 PM 38.2575 -90.4925 42° Northeast 163 188 5,100  Level Kansas City Center
Sun 08:01:43 PM 38.2994 -90.4478 40° Northeast 164 189 5,100 -145 Level Kansas City Center
Sun 08:02:45 PM 38.3369 -90.4122 37° Northeast 166 191 4,800 -341 Descending Kansas City Center
Sun 08:03:46 PM 38.3744 -90.3703 41° Northeast 172 198 4,400 -439 Descending Kansas City Center
Sun 08:04:48 PM 38.4125 -90.3261 42° Northeast 179 206 3,900 -484 Descending Kansas City Center
Sun 08:05:50 PM 38.4528 -90.2867 37° Northeast 182 209 3,400 -537 Descending Kansas City Center
Sun 08:06:51 PM 38.4972 -90.2525 31° Northeast 184 212 2,800 -732 Descending Kansas City Center
Sun 08:07:53 PM 38.5436 -90.2239 26° Northeast 186 214 1,900 -871 Descending Kansas City Center
Sun 08:08:55 PM 38.5800 -90.1842 40° Northeast 153 176 1,000 -634 Descending Kansas City Center
Sun 08:09:56 PM 38.5708 -90.1539 111° Southeast 130 150 600 -393 Descending Kansas City Center
Sun 08:11:00 PM 38.5704 -90.1551 144° Southeast  Level Estimated
Sun 08:18:00 PM 38.5667 -90.1500 38° Northeast  Level FlightAware Approximate
Sun 08:19:00 PM 38.5704 -90.1551 38° Northeast  Level Estimated
Sun 08:20:00 PM 38.5667 -90.1500 38° Northeast  Level FlightAware Approximate

Login

Don't have an account? Register now (free) for customized features, flight alerts, and more!